sensor_id;sensor_type;location;lat;lon;timestamp;temperature;humidity
61916;DHT22;47868;51.326;6.550;2023-02-10T00:00:24;5.40;99.90
61916;DHT22;47868;51.326;6.550;2023-02-10T00:02:49;5.40;99.90
61916;DHT22;47868;51.326;6.550;2023-02-10T00:05:15;5.40;99.90
61916;DHT22;47868;51.326;6.550;2023-02-10T00:07:41;5.40;99.90
61916;DHT22;47868;51.326;6.550;2023-02-10T00:10:07;5.50;99.90
61916;DHT22;47868;51.326;6.550;2023-02-10T00:12:36;5.70;99.90
61916;DHT22;47868;51.326;6.550;2023-02-10T00:15:02;5.50;99.90
61916;DHT22;47868;51.326;6.550;2023-02-10T00:17:27;5.50;99.90
61916;DHT22;47868;51.326;6.550;2023-02-10T00:19:53;7.10;99.90
61916;DHT22;47868;51.326;6.550;2023-02-10T00:22:18;5.40;99.90
61916;DHT22;47868;51.326;6.550;2023-02-10T00:24:44;5.40;99.90
61916;DHT22;47868;51.326;6.550;2023-02-10T00:27:09;5.40;99.90
61916;DHT22;47868;51.326;6.550;2023-02-10T00:29:35;5.40;99.90
61916;DHT22;47868;51.326;6.550;2023-02-10T00:32:01;5.50;99.90
61916;DHT22;47868;51.326;6.550;2023-02-10T00:34:26;5.50;99.90
61916;DHT22;47868;51.326;6.550;2023-02-10T00:36:53;5.50;99.90
61916;DHT22;47868;51.326;6.550;2023-02-10T00:39:18;5.50;99.90
61916;DHT22;47868;51.326;6.550;2023-02-10T00:41:44;5.50;99.90
61916;DHT22;47868;51.326;6.550;2023-02-10T00:44:10;5.50;99.90
61916;DHT22;47868;51.326;6.550;2023-02-10T00:46:36;5.40;99.90
61916;DHT22;47868;51.326;6.550;2023-02-10T00:49:02;5.50;99.90
61916;DHT22;47868;51.326;6.550;2023-02-10T00:51:28;5.50;99.90
61916;DHT22;47868;51.326;6.550;2023-02-10T00:53:53;5.50;99.90
61916;DHT22;47868;51.326;6.550;2023-02-10T00:56:20;5.50;99.90
61916;DHT22;47868;51.326;6.550;2023-02-10T00:58:47;5.50;99.90
61916;DHT22;47868;51.326;6.550;2023-02-10T01:01:13;5.50;99.90
61916;DHT22;47868;51.326;6.550;2023-02-10T01:03:38;5.50;99.90
61916;DHT22;47868;51.326;6.550;2023-02-10T01:06:04;5.50;99.90
61916;DHT22;47868;51.326;6.550;2023-02-10T01:08:30;5.40;99.90
61916;DHT22;47868;51.326;6.550;2023-02-10T01:11:07;5.50;99.90
61916;DHT22;47868;51.326;6.550;2023-02-10T01:13:34;5.50;99.90
61916;DHT22;47868;51.326;6.550;2023-02-10T01:16:00;5.50;99.90
61916;DHT22;47868;51.326;6.550;2023-02-10T01:18:26;5.50;99.90
61916;DHT22;47868;51.326;6.550;2023-02-10T01:20:52;5.50;99.90
61916;DHT22;47868;51.326;6.550;2023-02-10T01:23:18;5.50;99.90
61916;DHT22;47868;51.326;6.550;2023-02-10T01:25:43;5.50;99.90
61916;DHT22;47868;51.326;6.550;2023-02-10T01:28:09;5.40;99.90
61916;DHT22;47868;51.326;6.550;2023-02-10T01:30:35;5.50;99.90
61916;DHT22;47868;51.326;6.550;2023-02-10T01:33:01;5.40;99.90
61916;DHT22;47868;51.326;6.550;2023-02-10T01:35:26;5.40;99.90
61916;DHT22;47868;51.326;6.550;2023-02-10T01:37:52;5.40;99.90
61916;DHT22;47868;51.326;6.550;2023-02-10T01:40:20;5.30;99.90
61916;DHT22;47868;51.326;6.550;2023-02-10T01:42:45;5.40;99.90
61916;DHT22;47868;51.326;6.550;2023-02-10T01:45:16;5.40;99.90
61916;DHT22;47868;51.326;6.550;2023-02-10T01:47:42;5.40;99.90
61916;DHT22;47868;51.326;6.550;2023-02-10T01:50:09;5.30;99.90
61916;DHT22;47868;51.326;6.550;2023-02-10T01:52:35;5.30;99.90
61916;DHT22;47868;51.326;6.550;2023-02-10T01:55:10;5.20;99.90
61916;DHT22;47868;51.326;6.550;2023-02-10T01:57:37;5.20;99.90
61916;DHT22;47868;51.326;6.550;2023-02-10T02:00:05;5.20;99.90
61916;DHT22;47868;51.326;6.550;2023-02-10T02:02:31;5.20;99.90
61916;DHT22;47868;51.326;6.550;2023-02-10T02:05:03;5.20;99.90
61916;DHT22;47868;51.326;6.550;2023-02-10T02:07:32;5.20;99.90
61916;DHT22;47868;51.326;6.550;2023-02-10T02:10:02;5.30;99.90
61916;DHT22;47868;51.326;6.550;2023-02-10T02:15:27;5.20;99.90
61916;DHT22;47868;51.326;6.550;2023-02-10T02:26:17;5.30;99.90
61916;DHT22;47868;51.326;6.550;2023-02-10T02:34:03;5.30;99.90
61916;DHT22;47868;51.326;6.550;2023-02-10T02:36:41;5.30;99.90
61916;DHT22;47868;51.326;6.550;2023-02-10T02:39:08;5.20;99.90
61916;DHT22;47868;51.326;6.550;2023-02-10T02:41:34;5.20;99.90
61916;DHT22;47868;51.326;6.550;2023-02-10T02:44:01;5.20;99.90
61916;DHT22;47868;51.326;6.550;2023-02-10T02:52:21;5.10;99.90
61916;DHT22;47868;51.326;6.550;2023-02-10T02:54:51;5.00;99.90
61916;DHT22;47868;51.326;6.550;2023-02-10T02:57:50;5.00;99.90
61916;DHT22;47868;51.326;6.550;2023-02-10T03:00:23;5.00;99.90
61916;DHT22;47868;51.326;6.550;2023-02-10T03:02:53;4.90;99.90
61916;DHT22;47868;51.326;6.550;2023-02-10T03:05:21;4.90;99.90
61916;DHT22;47868;51.326;6.550;2023-02-10T03:07:49;4.90;99.90
61916;DHT22;47868;51.326;6.550;2023-02-10T03:10:15;4.80;99.90
61916;DHT22;47868;51.326;6.550;2023-02-10T03:12:41;4.70;99.90
61916;DHT22;47868;51.326;6.550;2023-02-10T03:15:07;4.80;99.90
61916;DHT22;47868;51.326;6.550;2023-02-10T03:17:33;4.70;99.90
61916;DHT22;47868;51.326;6.550;2023-02-10T03:19:59;4.70;99.90
61916;DHT22;47868;51.326;6.550;2023-02-10T03:22:24;4.70;99.90
61916;DHT22;47868;51.326;6.550;2023-02-10T03:24:50;4.70;99.90
61916;DHT22;47868;51.326;6.550;2023-02-10T03:27:15;4.70;99.90
61916;DHT22;47868;51.326;6.550;2023-02-10T03:29:41;4.60;99.90
61916;DHT22;47868;51.326;6.550;2023-02-10T03:32:07;4.60;99.90
61916;DHT22;47868;51.326;6.550;2023-02-10T03:34:33;4.60;99.90
61916;DHT22;47868;51.326;6.550;2023-02-10T03:36:59;4.50;99.90
61916;DHT22;47868;51.326;6.550;2023-02-10T03:39:24;4.50;99.90
61916;DHT22;47868;51.326;6.550;2023-02-10T03:41:50;4.50;99.90
61916;DHT22;47868;51.326;6.550;2023-02-10T03:44:16;4.50;99.90
61916;DHT22;47868;51.326;6.550;2023-02-10T03:46:41;4.50;99.90
61916;DHT22;47868;51.326;6.550;2023-02-10T03:49:07;4.50;99.90
61916;DHT22;47868;51.326;6.550;2023-02-10T03:51:32;4.40;99.90
61916;DHT22;47868;51.326;6.550;2023-02-10T03:53:58;4.40;99.90
61916;DHT22;47868;51.326;6.550;2023-02-10T03:56:24;4.30;99.90
61916;DHT22;47868;51.326;6.550;2023-02-10T03:58:49;4.30;99.90
61916;DHT22;47868;51.326;6.550;2023-02-10T04:01:16;4.30;99.90
61916;DHT22;47868;51.326;6.550;2023-02-10T04:03:43;4.30;99.90
61916;DHT22;47868;51.326;6.550;2023-02-10T04:06:10;4.30;99.90
61916;DHT22;47868;51.326;6.550;2023-02-10T04:08:37;4.20;99.90
61916;DHT22;47868;51.326;6.550;2023-02-10T04:11:03;4.20;99.90
61916;DHT22;47868;51.326;6.550;2023-02-10T04:13:29;4.20;99.90
61916;DHT22;47868;51.326;6.550;2023-02-10T04:16:11;4.20;99.90
61916;DHT22;47868;51.326;6.550;2023-02-10T04:18:37;4.20;99.90
61916;DHT22;47868;51.326;6.550;2023-02-10T04:21:05;4.10;99.90
61916;DHT22;47868;51.326;6.550;2023-02-10T04:23:31;4.10;99.90
61916;DHT22;47868;51.326;6.550;2023-02-10T04:25:58;4.10;99.90
61916;DHT22;47868;51.326;6.550;2023-02-10T04:28:24;4.00;99.90
61916;DHT22;47868;51.326;6.550;2023-02-10T04:30:54;4.00;99.90
61916;DHT22;47868;51.326;6.550;2023-02-10T04:33:21;3.90;99.90
61916;DHT22;47868;51.326;6.550;2023-02-10T04:35:48;3.90;99.90
61916;DHT22;47868;51.326;6.550;2023-02-10T04:38:14;3.90;99.90
61916;DHT22;47868;51.326;6.550;2023-02-10T04:40:40;3.90;99.90
61916;DHT22;47868;51.326;6.550;2023-02-10T04:43:07;3.90;99.90
61916;DHT22;47868;51.326;6.550;2023-02-10T04:45:33;3.90;99.90
61916;DHT22;47868;51.326;6.550;2023-02-10T04:47:58;3.90;99.90
61916;DHT22;47868;51.326;6.550;2023-02-10T04:50:24;3.90;99.90
61916;DHT22;47868;51.326;6.550;2023-02-10T04:52:49;3.80;99.90
61916;DHT22;47868;51.326;6.550;2023-02-10T04:55:15;3.80;99.90
61916;DHT22;47868;51.326;6.550;2023-02-10T04:57:41;3.80;99.90
61916;DHT22;47868;51.326;6.550;2023-02-10T05:00:07;3.80;99.90
61916;DHT22;47868;51.326;6.550;2023-02-10T05:02:32;3.70;99.90
61916;DHT22;47868;51.326;6.550;2023-02-10T05:04:58;3.80;99.90
61916;DHT22;47868;51.326;6.550;2023-02-10T05:07:24;3.80;99.90
61916;DHT22;47868;51.326;6.550;2023-02-10T05:09:49;3.70;99.90
61916;DHT22;47868;51.326;6.550;2023-02-10T05:12:15;3.70;99.90
61916;DHT22;47868;51.326;6.550;2023-02-10T05:14:40;3.70;99.90
61916;DHT22;47868;51.326;6.550;2023-02-10T05:17:06;3.70;99.90
61916;DHT22;47868;51.326;6.550;2023-02-10T05:19:32;3.70;99.90
61916;DHT22;47868;51.326;6.550;2023-02-10T05:21:58;3.70;99.90
61916;DHT22;47868;51.326;6.550;2023-02-10T05:24:23;3.60;99.90
61916;DHT22;47868;51.326;6.550;2023-02-10T05:26:49;3.60;99.90
61916;DHT22;47868;51.326;6.550;2023-02-10T05:29:15;3.60;99.90
61916;DHT22;47868;51.326;6.550;2023-02-10T05:31:40;3.50;99.90
61916;DHT22;47868;51.326;6.550;2023-02-10T05:34:06;3.50;99.90
61916;DHT22;47868;51.326;6.550;2023-02-10T05:36:32;3.40;99.90
61916;DHT22;47868;51.326;6.550;2023-02-10T05:38:57;3.40;99.90
61916;DHT22;47868;51.326;6.550;2023-02-10T05:41:41;3.40;99.90
61916;DHT22;47868;51.326;6.550;2023-02-10T05:44:07;3.40;99.90
61916;DHT22;47868;51.326;6.550;2023-02-10T05:46:32;3.40;99.90
61916;DHT22;47868;51.326;6.550;2023-02-10T05:48:58;3.40;99.90
61916;DHT22;47868;51.326;6.550;2023-02-10T05:51:24;3.40;99.90
61916;DHT22;47868;51.326;6.550;2023-02-10T05:53:49;3.40;99.90
61916;DHT22;47868;51.326;6.550;2023-02-10T05:56:15;3.40;99.90
61916;DHT22;47868;51.326;6.550;2023-02-10T05:58:40;3.30;99.90
61916;DHT22;47868;51.326;6.550;2023-02-10T06:01:07;3.30;99.90
61916;DHT22;47868;51.326;6.550;2023-02-10T06:03:33;3.30;99.90
61916;DHT22;47868;51.326;6.550;2023-02-10T06:05:59;3.30;99.90
61916;DHT22;47868;51.326;6.550;2023-02-10T06:08:25;3.30;99.90
61916;DHT22;47868;51.326;6.550;2023-02-10T06:10:51;3.30;99.90
61916;DHT22;47868;51.326;6.550;2023-02-10T06:13:17;3.30;99.90
61916;DHT22;47868;51.326;6.550;2023-02-10T06:15:42;3.30;99.90
61916;DHT22;47868;51.326;6.550;2023-02-10T06:18:08;3.30;99.90
61916;DHT22;47868;51.326;6.550;2023-02-10T06:20:34;3.30;99.90
61916;DHT22;47868;51.326;6.550;2023-02-10T06:22:59;3.30;99.90
61916;DHT22;47868;51.326;6.550;2023-02-10T06:25:25;3.30;99.90
61916;DHT22;47868;51.326;6.550;2023-02-10T06:27:51;3.30;99.90
61916;DHT22;47868;51.326;6.550;2023-02-10T06:30:16;3.30;99.90
61916;DHT22;47868;51.326;6.550;2023-02-10T06:32:42;3.30;99.90
61916;DHT22;47868;51.326;6.550;2023-02-10T06:35:07;3.30;99.90
61916;DHT22;47868;51.326;6.550;2023-02-10T06:37:33;3.20;99.90
61916;DHT22;47868;51.326;6.550;2023-02-10T06:39:59;3.10;99.90
61916;DHT22;47868;51.326;6.550;2023-02-10T06:42:27;3.10;99.90
61916;DHT22;47868;51.326;6.550;2023-02-10T06:44:52;3.10;99.90
61916;DHT22;47868;51.326;6.550;2023-02-10T06:47:18;3.10;99.90
61916;DHT22;47868;51.326;6.550;2023-02-10T06:49:44;3.10;99.90
61916;DHT22;47868;51.326;6.550;2023-02-10T06:52:09;3.10;99.90
61916;DHT22;47868;51.326;6.550;2023-02-10T11:21:48;7.40;99.90
61916;DHT22;47868;51.326;6.550;2023-02-10T11:24:34;7.80;99.90
61916;DHT22;47868;51.326;6.550;2023-02-10T11:27:04;7.50;99.90
61916;DHT22;47868;51.326;6.550;2023-02-10T11:29:33;7.40;99.90
61916;DHT22;47868;51.326;6.550;2023-02-10T11:31:59;7.50;99.90
61916;DHT22;47868;51.326;6.550;2023-02-10T11:34:38;7.60;99.90
61916;DHT22;47868;51.326;6.550;2023-02-10T11:37:18;7.50;99.90
61916;DHT22;47868;51.326;6.550;2023-02-10T11:39:45;7.50;99.90
61916;DHT22;47868;51.326;6.550;2023-02-10T11:42:20;8.20;99.90
61916;DHT22;47868;51.326;6.550;2023-02-10T11:44:57;7.80;99.90
61916;DHT22;47868;51.326;6.550;2023-02-10T11:47:26;7.80;99.90
61916;DHT22;47868;51.326;6.550;2023-02-10T11:49:52;7.70;99.90
61916;DHT22;47868;51.326;6.550;2023-02-10T11:52:19;7.80;99.90
61916;DHT22;47868;51.326;6.550;2023-02-10T11:54:46;8.20;99.90
61916;DHT22;47868;51.326;6.550;2023-02-10T11:57:24;8.00;99.90
61916;DHT22;47868;51.326;6.550;2023-02-10T12:00:19;8.10;99.90
61916;DHT22;47868;51.326;6.550;2023-02-10T12:05:58;8.30;99.90
61916;DHT22;47868;51.326;6.550;2023-02-10T12:42:00;9.30;99.90
61916;DHT22;47868;51.326;6.550;2023-02-10T12:48:00;9.70;99.90
61916;DHT22;47868;51.326;6.550;2023-02-10T12:53:17;9.90;99.90
61916;DHT22;47868;51.326;6.550;2023-02-10T12:56:07;9.90;99.90
61916;DHT22;47868;51.326;6.550;2023-02-10T12:58:46;10.00;99.90
61916;DHT22;47868;51.326;6.550;2023-02-10T13:04:04;10.10;99.90
61916;DHT22;47868;51.326;6.550;2023-02-10T13:06:44;10.60;99.90
61916;DHT22;47868;51.326;6.550;2023-02-10T13:09:30;10.20;99.90
61916;DHT22;47868;51.326;6.550;2023-02-10T13:12:30;10.00;99.90
61916;DHT22;47868;51.326;6.550;2023-02-10T13:15:05;9.90;99.90
61916;DHT22;47868;51.326;6.550;2023-02-10T13:17:49;9.90;99.90
61916;DHT22;47868;51.326;6.550;2023-02-10T13:20:35;10.10;99.90
61916;DHT22;47868;51.326;6.550;2023-02-10T13:23:40;10.20;99.90
61916;DHT22;47868;51.326;6.550;2023-02-10T13:34:23;10.40;99.90
61916;DHT22;47868;51.326;6.550;2023-02-10T13:39:36;10.50;99.90
61916;DHT22;47868;51.326;6.550;2023-02-10T13:44:45;11.20;99.90
61916;DHT22;47868;51.326;6.550;2023-02-10T13:50:16;11.10;99.90
61916;DHT22;47868;51.326;6.550;2023-02-10T13:53:01;11.00;99.90
61916;DHT22;47868;51.326;6.550;2023-02-10T13:55:41;11.00;99.90
61916;DHT22;47868;51.326;6.550;2023-02-10T14:00:50;11.20;99.90
61916;DHT22;47868;51.326;6.550;2023-02-10T14:06:03;12.00;99.90
61916;DHT22;47868;51.326;6.550;2023-02-10T14:08:38;11.10;99.90
61916;DHT22;47868;51.326;6.550;2023-02-10T14:13:44;11.00;99.90
61916;DHT22;47868;51.326;6.550;2023-02-10T14:18:38;11.10;99.90
61916;DHT22;47868;51.326;6.550;2023-02-10T14:21:11;10.80;99.90
61916;DHT22;47868;51.326;6.550;2023-02-10T14:23:41;10.50;99.90
61916;DHT22;47868;51.326;6.550;2023-02-10T14:26:16;10.80;99.90
61916;DHT22;47868;51.326;6.550;2023-02-10T14:28:52;11.70;99.90
61916;DHT22;47868;51.326;6.550;2023-02-10T14:31:30;10.90;99.90
61916;DHT22;47868;51.326;6.550;2023-02-10T14:34:03;11.10;99.90
61916;DHT22;47868;51.326;6.550;2023-02-10T14:36:29;11.30;99.90
61916;DHT22;47868;51.326;6.550;2023-02-10T14:38:58;11.00;99.90
61916;DHT22;47868;51.326;6.550;2023-02-10T14:41:26;11.10;99.90
61916;DHT22;47868;51.326;6.550;2023-02-10T14:43:52;11.20;99.90
61916;DHT22;47868;51.326;6.550;2023-02-10T14:46:31;11.20;99.90
61916;DHT22;47868;51.326;6.550;2023-02-10T14:48:59;11.40;99.90
61916;DHT22;47868;51.326;6.550;2023-02-10T14:51:26;11.10;99.90
61916;DHT22;47868;51.326;6.550;2023-02-10T14:53:52;10.80;99.90
61916;DHT22;47868;51.326;6.550;2023-02-10T14:56:28;10.60;99.90
61916;DHT22;47868;51.326;6.550;2023-02-10T14:58:54;10.60;99.90
61916;DHT22;47868;51.326;6.550;2023-02-10T15:01:32;10.40;99.90
61916;DHT22;47868;51.326;6.550;2023-02-10T15:03:58;10.60;99.90
61916;DHT22;47868;51.326;6.550;2023-02-10T15:06:28;10.40;99.90
61916;DHT22;47868;51.326;6.550;2023-02-10T15:09:01;10.20;99.90
61916;DHT22;47868;51.326;6.550;2023-02-10T15:11:39;10.80;99.90
61916;DHT22;47868;51.326;6.550;2023-02-10T15:14:27;9.80;99.90
61916;DHT22;47868;51.326;6.550;2023-02-10T15:16:57;9.70;99.90
61916;DHT22;47868;51.326;6.550;2023-02-10T15:19:23;9.60;99.90
61916;DHT22;47868;51.326;6.550;2023-02-10T15:21:49;9.70;99.90
61916;DHT22;47868;51.326;6.550;2023-02-10T15:24:25;9.50;99.90
61916;DHT22;47868;51.326;6.550;2023-02-10T15:26:51;9.50;99.90
61916;DHT22;47868;51.326;6.550;2023-02-10T15:29:17;9.60;99.90
61916;DHT22;47868;51.326;6.550;2023-02-10T15:32:03;9.80;99.90
61916;DHT22;47868;51.326;6.550;2023-02-10T15:34:32;9.60;99.90
61916;DHT22;47868;51.326;6.550;2023-02-10T15:36:58;9.70;99.90
61916;DHT22;47868;51.326;6.550;2023-02-10T15:39:30;10.20;99.90
61916;DHT22;47868;51.326;6.550;2023-02-10T15:42:03;9.90;99.90
61916;DHT22;47868;51.326;6.550;2023-02-10T15:44:36;9.90;99.90
61916;DHT22;47868;51.326;6.550;2023-02-10T15:47:21;9.80;99.90
61916;DHT22;47868;51.326;6.550;2023-02-10T15:49:52;9.90;99.90
61916;DHT22;47868;51.326;6.550;2023-02-10T15:52:22;9.60;99.90
61916;DHT22;47868;51.326;6.550;2023-02-10T15:54:49;9.60;99.90
61916;DHT22;47868;51.326;6.550;2023-02-10T15:57:18;10.40;99.90
61916;DHT22;47868;51.326;6.550;2023-02-10T15:59:44;10.30;99.90
61916;DHT22;47868;51.326;6.550;2023-02-10T16:02:13;9.60;99.90
61916;DHT22;47868;51.326;6.550;2023-02-10T16:04:39;9.50;99.90
61916;DHT22;47868;51.326;6.550;2023-02-10T16:07:05;9.40;99.90
61916;DHT22;47868;51.326;6.550;2023-02-10T16:09:31;9.50;99.90
61916;DHT22;47868;51.326;6.550;2023-02-10T16:11:59;9.60;99.90
61916;DHT22;47868;51.326;6.550;2023-02-10T16:14:25;9.20;99.90
61916;DHT22;47868;51.326;6.550;2023-02-10T16:16:52;9.30;99.90
61916;DHT22;47868;51.326;6.550;2023-02-10T16:19:21;9.20;99.90
61916;DHT22;47868;51.326;6.550;2023-02-10T16:21:47;9.10;99.90
61916;DHT22;47868;51.326;6.550;2023-02-10T16:24:18;8.90;99.90
61916;DHT22;47868;51.326;6.550;2023-02-10T16:26:45;9.00;99.90
61916;DHT22;47868;51.326;6.550;2023-02-10T16:29:25;8.70;99.90
61916;DHT22;47868;51.326;6.550;2023-02-10T16:31:51;8.90;99.90
61916;DHT22;47868;51.326;6.550;2023-02-10T16:34:17;8.50;99.90
61916;DHT22;47868;51.326;6.550;2023-02-10T16:36:43;8.50;99.90
61916;DHT22;47868;51.326;6.550;2023-02-10T16:39:18;8.30;99.90
61916;DHT22;47868;51.326;6.550;2023-02-10T16:41:48;8.40;99.90
61916;DHT22;47868;51.326;6.550;2023-02-10T16:44:14;8.50;99.90
61916;DHT22;47868;51.326;6.550;2023-02-10T16:46:40;7.40;99.90
61916;DHT22;47868;51.326;6.550;2023-02-10T16:49:06;8.30;99.90
61916;DHT22;47868;51.326;6.550;2023-02-10T16:51:33;8.20;99.90
61916;DHT22;47868;51.326;6.550;2023-02-10T16:53:59;7.80;99.90
61916;DHT22;47868;51.326;6.550;2023-02-10T16:56:24;8.20;99.90
61916;DHT22;47868;51.326;6.550;2023-02-10T16:58:51;8.30;99.90
61916;DHT22;47868;51.326;6.550;2023-02-10T17:01:17;8.00;99.90
61916;DHT22;47868;51.326;6.550;2023-02-10T17:03:43;8.40;99.90
61916;DHT22;47868;51.326;6.550;2023-02-10T17:06:16;7.90;99.90
61916;DHT22;47868;51.326;6.550;2023-02-10T17:08:43;8.00;99.90
61916;DHT22;47868;51.326;6.550;2023-02-10T17:11:08;8.00;99.90
61916;DHT22;47868;51.326;6.550;2023-02-10T17:13:34;8.00;99.90
61916;DHT22;47868;51.326;6.550;2023-02-10T17:16:00;8.00;99.90
61916;DHT22;47868;51.326;6.550;2023-02-10T17:18:25;7.60;99.90
61916;DHT22;47868;51.326;6.550;2023-02-10T17:20:51;8.00;99.90
61916;DHT22;47868;51.326;6.550;2023-02-10T17:23:16;8.20;99.90
61916;DHT22;47868;51.326;6.550;2023-02-10T17:25:42;8.00;99.90
61916;DHT22;47868;51.326;6.550;2023-02-10T17:28:08;8.00;99.90
61916;DHT22;47868;51.326;6.550;2023-02-10T17:30:34;8.20;99.90
61916;DHT22;47868;51.326;6.550;2023-02-10T17:33:02;8.10;99.90
61916;DHT22;47868;51.326;6.550;2023-02-10T17:35:28;8.00;99.90
61916;DHT22;47868;51.326;6.550;2023-02-10T17:37:56;7.80;99.90
61916;DHT22;47868;51.326;6.550;2023-02-10T17:40:43;8.00;99.90
61916;DHT22;47868;51.326;6.550;2023-02-10T17:43:08;8.00;99.90
61916;DHT22;47868;51.326;6.550;2023-02-10T17:45:39;8.00;99.90
61916;DHT22;47868;51.326;6.550;2023-02-10T17:48:04;8.00;99.90
61916;DHT22;47868;51.326;6.550;2023-02-10T17:50:32;8.00;99.90
61916;DHT22;47868;51.326;6.550;2023-02-10T17:52:58;8.00;99.90
61916;DHT22;47868;51.326;6.550;2023-02-10T17:55:23;7.90;99.90
61916;DHT22;47868;51.326;6.550;2023-02-10T17:57:49;8.00;99.90
61916;DHT22;47868;51.326;6.550;2023-02-10T18:00:16;8.00;99.90
61916;DHT22;47868;51.326;6.550;2023-02-10T18:02:42;8.00;99.90
61916;DHT22;47868;51.326;6.550;2023-02-10T18:05:08;8.00;99.90
61916;DHT22;47868;51.326;6.550;2023-02-10T18:10:02;7.80;99.90
61916;DHT22;47868;51.326;6.550;2023-02-10T18:12:28;7.90;99.90
61916;DHT22;47868;51.326;6.550;2023-02-10T18:14:54;7.90;99.90
61916;DHT22;47868;51.326;6.550;2023-02-10T18:17:19;7.80;99.90
61916;DHT22;47868;51.326;6.550;2023-02-10T18:19:46;7.80;99.90
61916;DHT22;47868;51.326;6.550;2023-02-10T18:22:11;7.70;99.90
61916;DHT22;47868;51.326;6.550;2023-02-10T18:24:37;7.70;99.90
61916;DHT22;47868;51.326;6.550;2023-02-10T18:27:03;7.70;99.90
61916;DHT22;47868;51.326;6.550;2023-02-10T18:29:29;7.60;99.90
61916;DHT22;47868;51.326;6.550;2023-02-10T18:31:56;7.70;99.90
61916;DHT22;47868;51.326;6.550;2023-02-10T18:34:22;7.70;99.90
61916;DHT22;47868;51.326;6.550;2023-02-10T18:36:47;7.70;99.90
61916;DHT22;47868;51.326;6.550;2023-02-10T18:41:39;7.60;99.90
61916;DHT22;47868;51.326;6.550;2023-02-10T18:44:05;7.60;99.90
61916;DHT22;47868;51.326;6.550;2023-02-10T18:46:30;7.70;99.90
61916;DHT22;47868;51.326;6.550;2023-02-10T18:48:56;7.60;99.90
61916;DHT22;47868;51.326;6.550;2023-02-10T18:51:22;7.60;99.90
61916;DHT22;47868;51.326;6.550;2023-02-10T18:53:48;7.70;99.90
61916;DHT22;47868;51.326;6.550;2023-02-10T18:56:17;7.60;99.90
61916;DHT22;47868;51.326;6.550;2023-02-10T18:58:43;7.60;99.90
61916;DHT22;47868;51.326;6.550;2023-02-10T19:01:21;7.60;99.90
61916;DHT22;47868;51.326;6.550;2023-02-10T19:03:48;7.60;99.90
61916;DHT22;47868;51.326;6.550;2023-02-10T19:06:13;7.60;99.90
61916;DHT22;47868;51.326;6.550;2023-02-10T19:08:40;7.70;99.90
61916;DHT22;47868;51.326;6.550;2023-02-10T19:13:34;7.50;99.90
61916;DHT22;47868;51.326;6.550;2023-02-10T19:16:00;7.50;99.90
61916;DHT22;47868;51.326;6.550;2023-02-10T19:18:26;7.50;99.90
61916;DHT22;47868;51.326;6.550;2023-02-10T19:20:52;7.50;99.90
